Time;durP1;ratioP1;P1;durP2;ratioP2;P2;SDS_P1;SDS_P2;PMS_P1;PMS_P2;Temp;Humidity;BMP_temperature;BMP_pressure;BME280_temperature;BME280_humidity;BME280_pressure;Samples;Min_cycle;Max_cycle;Signal;HPM_P1;HPM_P2
2023/04/16 00:01:17;;;;;;;25.20;19.70;;;;;;;10.08;67.78;100966.33;108463;1255;65024;-54
2023/04/16 00:03:45;;;;;;;20.70;17.00;;;;;;;10.08;67.70;100966.73;108463;1257;58581;-54
2023/04/16 00:06:14;;;;;;;20.80;16.70;;;;;;;10.10;67.60;100969.50;105354;1254;60345;-54
2023/04/16 00:08:44;;;;;;;20.50;16.50;;;;;;;10.16;67.50;100971.05;105005;1254;66029;-54
2023/04/16 00:11:12;;;;;;;21.20;17.10;;;;;;;10.20;67.39;100973.95;105041;1254;62953;-54
2023/04/16 00:13:41;;;;;;;22.30;17.00;;;;;;;10.20;67.48;100975.34;105054;1258;63975;-54
2023/04/16 00:16:09;;;;;;;23.50;18.90;;;;;;;10.18;67.64;100974.91;105194;1254;60364;-55
2023/04/16 00:18:38;;;;;;;25.40;18.00;;;;;;;10.16;67.59;100978.77;105131;1253;60474;-54
2023/04/16 00:21:06;;;;;;;23.80;19.20;;;;;;;10.11;67.65;100978.74;108670;1253;66610;-54
2023/04/16 00:23:35;;;;;;;22.70;17.60;;;;;;;10.06;67.64;100977.83;108463;1253;62676;-54
2023/04/16 00:26:04;;;;;;;21.50;17.00;;;;;;;10.06;67.68;100977.53;105557;1258;65447;-54
2023/04/16 00:28:32;;;;;;;22.50;16.40;;;;;;;10.09;67.64;100975.52;104937;1258;60431;-54
2023/04/16 00:31:00;;;;;;;25.20;17.80;;;;;;;10.15;67.76;100980.88;108221;1254;59329;-54
2023/04/16 00:33:29;;;;;;;21.40;17.80;;;;;;;10.19;67.81;100978.17;107155;1254;65183;-54
2023/04/16 00:35:58;;;;;;;22.10;18.50;;;;;;;10.20;67.85;100980.02;108580;1253;62815;-54
2023/04/16 00:38:29;;;;;;;21.60;18.90;;;;;;;10.19;67.72;100981.33;108526;1253;65500;-55
2023/04/16 00:40:57;;;;;;;22.80;19.20;;;;;;;10.15;67.84;100983.55;105643;1253;61474;-53
2023/04/16 00:43:26;;;;;;;21.60;17.10;;;;;;;10.12;67.81;100980.59;105023;1253;60421;-55
2023/04/16 00:45:55;;;;;;;23.90;16.70;;;;;;;10.14;67.71;100985.73;104971;1257;65815;-55
2023/04/16 00:48:26;;;;;;;21.30;16.60;;;;;;;10.19;67.81;100984.51;108423;1253;62634;-55
2023/04/16 00:50:54;;;;;;;22.00;17.20;;;;;;;10.26;67.80;100984.02;108531;1253;65015;-55
2023/04/16 00:53:23;;;;;;;24.50;18.00;;;;;;;10.28;67.74;100982.48;108484;1254;60505;-55
2023/04/16 00:55:51;;;;;;;22.60;17.90;;;;;;;10.28;67.85;100986.70;108487;1254;59180;-55
2023/04/16 00:58:20;;;;;;;21.70;17.90;;;;;;;10.28;67.78;100986.20;108382;1253;66166;-55
2023/04/16 01:00:49;;;;;;;26.60;19.20;;;;;;;10.26;67.83;100986.16;108388;1253;62772;-55
2023/04/16 01:03:17;;;;;;;24.60;18.30;;;;;;;10.24;67.86;100982.40;108417;1253;64989;-55
2023/04/16 01:05:48;;;;;;;20.40;16.50;;;;;;;10.28;67.68;100984.45;108438;1255;58394;-55
2023/04/16 01:08:20;;;;;;;19.40;15.40;;;;;;;10.30;67.60;100985.52;108335;1256;59130;-55
2023/04/16 01:10:48;;;;;;;21.00;16.30;;;;;;;10.33;67.57;100986.90;108463;1253;65968;-55
2023/04/16 01:13:17;;;;;;;23.50;17.30;;;;;;;10.36;67.56;100986.00;108518;1253;62400;-55
2023/04/16 01:15:46;;;;;;;21.80;17.40;;;;;;;10.36;67.64;100987.41;108157;1257;63692;-55
2023/04/16 01:18:15;;;;;;;23.80;18.50;;;;;;;10.34;67.63;100984.73;108437;1253;58985;-55
2023/04/16 01:20:43;;;;;;;20.70;18.20;;;;;;;10.32;67.62;100984.04;108515;1255;61471;-55
2023/04/16 01:23:11;;;;;;;19.50;16.10;;;;;;;10.31;67.73;100987.06;108385;1254;65861;-55
2023/04/16 01:25:39;;;;;;;21.40;16.40;;;;;;;10.33;67.59;100985.86;108506;1253;62564;-55
2023/04/16 01:28:08;;;;;;;18.20;15.10;;;;;;;10.35;67.39;100985.34;108496;1253;64096;-55
2023/04/16 01:30:36;;;;;;;20.80;16.10;;;;;;;10.39;67.48;100983.84;108483;1253;59789;-55
2023/04/16 01:33:27;;;;;;;18.40;16.10;;;;;;;10.42;67.52;100984.00;108589;1253;59040;-55
2023/04/16 01:35:55;;;;;;;20.80;16.50;;;;;;;10.41;67.54;100979.89;108489;1253;67315;-55
2023/04/16 01:38:23;;;;;;;22.50;16.70;;;;;;;10.39;67.50;100981.75;108436;1254;62360;-55
2023/04/16 01:40:58;;;;;;;19.60;16.10;;;;;;;10.37;67.57;100980.99;108509;1253;65051;-55
2023/04/16 01:43:26;;;;;;;19.40;15.60;;;;;;;10.35;67.41;100982.73;108473;1254;59346;-55
2023/04/16 01:46:06;;;;;;;20.00;15.30;;;;;;;10.37;67.36;100984.19;108488;1253;59140;-54
2023/04/16 01:48:35;;;;;;;19.10;14.60;;;;;;;10.41;67.35;100985.48;108431;1253;65564;-55
2023/04/16 01:51:04;;;;;;;17.70;14.90;;;;;;;10.44;67.43;100987.73;108502;1256;63512;-55
2023/04/16 01:53:32;;;;;;;19.20;15.70;;;;;;;10.45;67.50;100988.20;108432;1253;72891;-54
2023/04/16 01:56:05;;;;;;;20.20;16.30;;;;;;;10.44;67.63;100988.94;108432;1258;59057;-56
2023/04/16 01:58:33;;;;;;;21.10;17.00;;;;;;;10.45;67.66;100990.68;108372;1254;61261;-54
2023/04/16 02:01:01;;;;;;;20.80;16.60;;;;;;;10.42;67.62;100990.35;108370;1253;65890;-55
2023/04/16 02:03:30;;;;;;;18.80;15.20;;;;;;;10.36;67.57;100992.13;108433;1257;61534;-55
2023/04/16 02:05:58;;;;;;;19.00;15.00;;;;;;;10.39;67.56;100990.16;108422;1253;64753;-54
2023/04/16 02:08:28;;;;;;;20.40;13.80;;;;;;;10.45;67.50;100996.83;108520;1254;58196;-55
2023/04/16 02:10:57;;;;;;;18.40;15.10;;;;;;;10.49;67.46;100995.10;105645;1257;60428;-54
2023/04/16 02:13:25;;;;;;;22.50;15.00;;;;;;;10.50;67.50;100996.61;108508;1257;65228;-54
2023/04/16 02:15:54;;;;;;;17.20;13.60;;;;;;;10.48;67.67;100998.34;108473;1257;62525;-54
2023/04/16 02:18:36;;;;;;;18.70;14.90;;;;;;;10.46;67.80;101000.39;108509;1259;64824;-55
2023/04/16 02:21:06;;;;;;;16.90;14.70;;;;;;;10.44;67.71;101002.79;108357;1253;58949;-55
2023/04/16 02:23:34;;;;;;;18.60;14.20;;;;;;;10.41;67.84;101005.80;108421;1256;59017;-54
2023/04/16 02:26:03;;;;;;;15.50;13.40;;;;;;;10.45;67.79;101008.03;108426;1257;66026;-54
2023/04/16 02:28:32;;;;;;;17.80;13.40;;;;;;;10.50;67.65;101006.98;106192;1253;62338;-54
2023/04/16 02:31:00;;;;;;;16.90;13.60;;;;;;;10.55;67.65;101008.71;105048;1253;64670;-54
2023/04/16 02:33:31;;;;;;;19.40;13.10;;;;;;;10.57;67.61;101009.46;108475;1253;60905;-54
2023/04/16 02:36:01;;;;;;;19.90;13.70;;;;;;;10.58;67.67;101011.83;108589;1255;59593;-54
2023/04/16 02:38:30;;;;;;;17.30;13.40;;;;;;;10.57;67.59;101010.70;108539;1253;66150;-55
2023/04/16 02:40:58;;;;;;;19.10;14.80;;;;;;;10.56;67.51;101014.13;105036;1257;61594;-54
2023/04/16 02:43:26;;;;;;;17.30;13.10;;;;;;;10.52;67.51;101015.23;108510;1253;63995;-54
2023/04/16 02:45:54;;;;;;;18.50;12.00;;;;;;;10.50;67.51;101015.03;108488;1253;59448;-54
2023/04/16 02:48:22;;;;;;;14.20;12.00;;;;;;;10.53;67.53;101018.65;108464;1253;59960;-54
2023/04/16 02:50:50;;;;;;;14.50;12.00;;;;;;;10.58;67.53;101019.71;108603;1253;66478;-54
2023/04/16 02:53:20;;;;;;;17.90;12.80;;;;;;;10.57;67.51;101021.92;106467;1257;62670;-54
2023/04/16 02:55:54;;;;;;;21.30;12.30;;;;;;;10.54;67.54;101022.46;108538;1252;65291;-54
2023/04/16 02:58:24;;;;;;;18.10;13.00;;;;;;;10.51;67.70;101022.53;108435;1257;59760;-54
2023/04/16 03:00:53;;;;;;;14.50;12.60;;;;;;;10.47;67.70;101027.89;108481;1253;59803;-54
2023/04/16 03:03:21;;;;;;;15.40;11.20;;;;;;;10.44;67.79;101028.23;108513;1253;65986;-54
2023/04/16 03:05:49;;;;;;;15.70;10.80;;;;;;;10.46;67.64;101030.58;105925;1256;61447;-53
2023/04/16 03:08:18;;;;;;;13.70;10.80;;;;;;;10.49;67.60;101034.92;105020;1253;64990;-54
2023/04/16 03:10:46;;;;;;;17.30;11.20;;;;;;;10.51;67.68;101038.46;108469;1253;58568;-54
2023/04/16 03:13:15;;;;;;;17.70;11.10;;;;;;;10.51;67.83;101039.86;108589;1254;60271;-54
2023/04/16 03:15:48;;;;;;;14.10;11.00;;;;;;;10.52;67.90;101040.19;108517;1253;65097;-55
2023/04/16 03:18:17;;;;;;;14.30;11.80;;;;;;;10.51;67.95;101040.26;108167;1253;61586;-54
2023/04/16 03:20:50;;;;;;;13.60;11.40;;;;;;;10.49;67.96;101036.89;105140;1258;65021;-53
2023/04/16 03:23:19;;;;;;;13.60;10.80;;;;;;;10.46;68.06;101038.30;105121;1253;60407;-52
2023/04/16 03:25:48;;;;;;;14.70;10.30;;;;;;;10.49;68.09;101041.91;105006;1252;60647;-53
2023/04/16 03:28:18;;;;;;;14.20;10.10;;;;;;;10.54;68.07;101044.21;105164;1256;65878;-53
2023/04/16 03:30:52;;;;;;;15.20;11.00;;;;;;;10.57;67.99;101048.78;105074;1253;74325;-53
2023/04/16 03:33:21;;;;;;;13.00;10.60;;;;;;;10.56;68.08;101048.50;105160;1257;64494;-52
2023/04/16 03:35:55;;;;;;;14.00;11.10;;;;;;;10.52;68.19;101051.00;105074;1257;60483;-53
2023/04/16 03:38:25;;;;;;;14.70;11.30;;;;;;;10.49;68.24;101049.68;105261;1254;60434;-55
2023/04/16 03:40:55;;;;;;;13.70;10.30;;;;;;;10.44;68.36;101048.96;105037;1253;65912;-55
2023/04/16 03:43:23;;;;;;;17.60;11.20;;;;;;;10.43;68.37;101051.32;105085;1254;63644;-55
2023/04/16 03:45:52;;;;;;;15.70;10.20;;;;;;;10.44;68.43;101056.70;108393;1257;65064;-53
2023/04/16 03:48:22;;;;;;;12.20;9.60;;;;;;;10.46;68.60;101058.09;108515;1253;58440;-54
2023/04/16 03:50:50;;;;;;;18.10;9.70;;;;;;;10.51;68.71;101058.14;106798;1253;61601;-54
2023/04/16 03:53:20;;;;;;;13.60;10.90;;;;;;;10.51;68.56;101063.39;105948;1257;68199;-54
2023/04/16 03:55:50;;;;;;;15.40;10.70;;;;;;;10.47;68.74;101062.75;108470;1257;64317;-55
2023/04/16 03:58:19;;;;;;;13.80;9.60;;;;;;;10.47;68.88;101067.83;108533;1253;65174;-54
2023/04/16 04:00:47;;;;;;;13.80;10.20;;;;;;;10.51;68.70;101068.13;108522;1252;61958;-55
2023/04/16 04:03:17;;;;;;;16.30;9.80;;;;;;;10.54;68.64;101068.23;108406;1253;58991;-55
2023/04/16 04:05:46;;;;;;;12.60;10.10;;;;;;;10.58;68.56;101068.86;108441;1256;66492;-54
2023/04/16 04:08:17;;;;;;;13.00;9.30;;;;;;;10.59;68.58;101071.45;108465;1253;61654;-54
2023/04/16 04:10:46;;;;;;;14.00;10.20;;;;;;;10.57;68.74;101073.68;108393;1253;65041;-54
2023/04/16 04:13:14;;;;;;;14.10;10.50;;;;;;;10.54;68.66;101074.91;108462;1253;59529;-54
2023/04/16 04:15:43;;;;;;;15.30;10.70;;;;;;;10.52;68.78;101074.35;108484;1253;60083;-55
2023/04/16 04:18:11;;;;;;;15.90;10.00;;;;;;;10.50;68.86;101076.45;108617;1253;66498;-57
2023/04/16 04:20:40;;;;;;;14.70;9.80;;;;;;;10.52;68.85;101078.23;108565;1252;62395;-54
2023/04/16 04:23:08;;;;;;;13.60;9.20;;;;;;;10.54;68.75;101075.92;108503;1252;64685;-54
2023/04/16 04:25:36;;;;;;;13.10;9.30;;;;;;;10.56;68.56;101078.98;108422;1257;59258;-55
2023/04/16 04:28:04;;;;;;;14.50;9.60;;;;;;;10.57;68.77;101081.54;107134;1252;60333;-54
2023/04/16 04:30:34;;;;;;;13.20;9.50;;;;;;;10.57;68.83;101080.30;105090;1257;68109;-54
2023/04/16 04:33:02;;;;;;;14.20;9.80;;;;;;;10.57;68.96;101080.19;105886;1253;63673;-55
2023/04/16 04:35:31;;;;;;;14.10;9.90;;;;;;;10.55;69.00;101083.80;108637;1252;64962;-55
2023/04/16 04:38:02;;;;;;;13.50;9.60;;;;;;;10.58;68.88;101083.26;108346;1253;60018;-55
2023/04/16 04:40:30;;;;;;;12.70;10.10;;;;;;;10.63;68.75;101085.54;107158;1253;59357;-54
2023/04/16 04:42:58;;;;;;;15.10;10.40;;;;;;;10.67;68.70;101085.66;108116;1253;66349;-54
2023/04/16 04:45:26;;;;;;;13.40;9.90;;;;;;;10.67;68.79;101087.04;105097;1257;63135;-53
2023/04/16 04:47:58;;;;;;;14.20;10.10;;;;;;;10.66;68.89;101085.84;105157;1257;67296;-54
2023/04/16 04:50:26;;;;;;;16.00;10.10;;;;;;;10.63;68.90;101088.20;108397;1253;59773;-54
2023/04/16 04:52:55;;;;;;;14.80;10.00;;;;;;;10.59;68.96;101087.90;108408;1257;59420;-53
2023/04/16 04:55:23;;;;;;;13.50;10.00;;;;;;;10.62;68.89;101089.33;108484;1254;66201;-54
2023/04/16 04:57:51;;;;;;;13.60;9.70;;;;;;;10.68;68.81;101090.87;108510;1254;61228;-53
2023/04/16 05:00:20;;;;;;;14.60;9.50;;;;;;;10.73;68.75;101089.39;108418;1253;65213;-54
2023/04/16 05:02:53;;;;;;;14.50;9.80;;;;;;;10.74;68.65;101088.29;108497;1253;60279;-54
2023/04/16 05:05:21;;;;;;;16.20;10.40;;;;;;;10.72;68.85;101090.67;108536;1252;59609;-54
2023/04/16 05:07:49;;;;;;;15.50;10.70;;;;;;;10.73;68.94;101091.19;108537;1252;66549;-55
2023/04/16 05:10:17;;;;;;;17.20;12.20;;;;;;;10.74;68.96;101090.58;108516;1253;61641;-54
2023/04/16 05:12:49;;;;;;;15.10;10.00;;;;;;;10.74;68.79;101093.75;108527;1253;65589;-55
2023/04/16 05:15:18;;;;;;;12.00;9.70;;;;;;;10.76;68.66;101092.86;108621;1253;59592;-55
2023/04/16 05:17:46;;;;;;;13.00;9.80;;;;;;;10.82;68.67;101096.02;108615;1253;61281;-54
2023/04/16 05:20:14;;;;;;;12.70;9.70;;;;;;;10.87;68.63;101097.07;106144;1252;66378;-55
2023/04/16 05:22:42;;;;;;;15.50;9.80;;;;;;;10.89;68.59;101100.40;105048;1253;62367;-55
2023/04/16 05:25:11;;;;;;;14.10;9.70;;;;;;;10.88;68.53;101101.74;104955;1254;66651;-55
2023/04/16 05:27:39;;;;;;;13.00;9.80;;;;;;;10.85;68.63;101103.02;105128;1253;60586;-55
2023/04/16 05:30:08;;;;;;;14.40;9.50;;;;;;;10.81;68.68;101105.55;105088;1252;60606;-54
2023/04/16 05:32:37;;;;;;;12.30;9.70;;;;;;;10.83;68.69;101103.83;108545;1253;66415;-54
2023/04/16 05:35:06;;;;;;;14.70;9.70;;;;;;;10.87;68.60;101104.91;108731;1253;62963;-54
2023/04/16 05:37:35;;;;;;;14.30;9.90;;;;;;;10.94;68.50;101104.77;108557;1257;73464;-54
2023/04/16 05:40:03;;;;;;;15.20;10.20;;;;;;;10.95;68.53;101105.90;108614;1252;59956;-54
2023/04/16 05:42:31;;;;;;;13.90;9.50;;;;;;;10.95;68.47;101107.15;108561;1253;58671;-53
2023/04/16 05:45:01;;;;;;;12.10;9.50;;;;;;;10.95;68.37;101103.54;105874;1257;66090;-54
2023/04/16 05:47:30;;;;;;;15.00;9.30;;;;;;;10.93;68.42;101103.79;108535;1257;62844;-54
2023/04/16 05:49:58;;;;;;;13.10;9.00;;;;;;;10.93;68.47;101107.67;108592;1253;64696;-54
2023/04/16 05:52:26;;;;;;;12.10;8.40;;;;;;;10.97;68.21;101107.93;108544;1253;59842;-55
2023/04/16 05:54:54;;;;;;;11.70;8.10;;;;;;;11.03;68.10;101111.36;108642;1257;58235;-55
2023/04/16 05:57:22;;;;;;;14.80;8.50;;;;;;;11.06;67.99;101109.10;108471;1253;65074;-55
2023/04/16 05:59:50;;;;;;;13.40;9.10;;;;;;;11.06;68.09;101113.95;107290;1255;62337;-54
2023/04/16 06:02:19;;;;;;;14.10;8.80;;;;;;;11.08;68.24;101114.52;105022;1253;64583;-54
2023/04/16 06:04:48;;;;;;;14.90;8.90;;;;;;;11.10;68.20;101118.41;108536;1255;60373;-54
2023/04/16 06:07:16;;;;;;;13.60;8.90;;;;;;;11.09;68.15;101117.11;108576;1253;58718;-54
2023/04/16 06:09:45;;;;;;;12.50;8.80;;;;;;;11.10;68.17;101124.05;108566;1252;65180;-54
2023/04/16 06:12:13;;;;;;;12.60;8.40;;;;;;;11.14;67.72;101126.77;108495;1257;62563;-54
2023/04/16 06:14:41;;;;;;;12.90;7.60;;;;;;;11.15;67.54;101130.35;108465;1253;64787;-54
2023/04/16 06:17:09;;;;;;;11.60;8.10;;;;;;;11.17;67.58;101131.83;108536;1267;58793;-54
2023/04/16 06:19:37;;;;;;;13.20;9.00;;;;;;;11.17;67.48;101136.56;108456;1253;58656;-54
2023/04/16 06:22:06;;;;;;;13.40;9.00;;;;;;;11.15;67.63;101139.35;108553;1253;65839;-54
2023/04/16 06:24:35;;;;;;;12.60;8.80;;;;;;;11.15;67.74;101145.29;108500;1252;63070;-54
2023/04/16 06:27:03;;;;;;;11.50;8.50;;;;;;;11.14;67.74;101145.35;108558;1253;65022;-54
2023/04/16 06:29:32;;;;;;;13.10;7.90;;;;;;;11.12;67.76;101147.41;108485;1253;60057;-54
2023/04/16 06:32:08;;;;;;;12.80;8.70;;;;;;;11.19;67.63;101151.55;108559;1252;58825;-54
2023/04/16 06:34:37;;;;;;;12.50;7.90;;;;;;;11.26;67.48;101154.19;108608;1253;66171;-54
2023/04/16 06:37:05;;;;;;;11.90;8.60;;;;;;;11.31;67.46;101154.35;108562;1253;63768;-54
2023/04/16 06:39:37;;;;;;;14.00;8.50;;;;;;;11.34;67.57;101156.91;108669;1255;64721;-54
2023/04/16 06:42:05;;;;;;;12.40;9.00;;;;;;;11.37;67.58;101158.33;108480;1253;58356;-55
2023/04/16 06:44:34;;;;;;;12.50;9.10;;;;;;;11.39;67.32;101161.77;108555;1253;58426;-54
2023/04/16 06:47:02;;;;;;;20.90;10.20;;;;;;;11.36;67.13;101165.60;108540;1253;66432;-55
2023/04/16 06:49:31;;;;;;;13.80;9.80;;;;;;;11.32;67.11;101164.85;108493;1253;62619;-56
2023/04/16 06:51:59;;;;;;;16.50;11.20;;;;;;;11.32;67.00;101165.02;105686;1256;64253;-56
2023/04/16 06:54:28;;;;;;;19.40;11.10;;;;;;;11.33;66.80;101163.31;105151;1253;60481;-55
2023/04/16 06:56:56;;;;;;;14.20;10.60;;;;;;;11.31;66.72;101166.27;105120;1253;60448;-55
2023/04/16 06:59:24;;;;;;;17.50;12.50;;;;;;;11.28;66.85;101171.09;105046;1254;65585;-55
2023/04/16 07:01:53;;;;;;;18.00;11.00;;;;;;;11.22;66.77;101170.30;106674;1257;62620;-56
2023/04/16 07:04:22;;;;;;;16.00;12.10;;;;;;;11.15;66.73;101174.44;105088;1257;65299;-56
2023/04/16 07:06:50;;;;;;;16.70;12.10;;;;;;;11.10;66.87;101177.41;108317;1257;299393;-56
2023/04/16 07:22:03;;;;;;;19.10;11.90;;;;;;;11.40;66.87;101174.56;102500;1291;608480;-55
2023/04/16 07:24:31;;;;;;;16.40;11.80;;;;;;;11.89;65.58;101175.47;103942;1271;102492;-55
2023/04/16 07:27:00;;;;;;;17.60;12.60;;;;;;;11.89;65.37;101176.59;107700;1266;62415;-55
2023/04/16 07:29:28;;;;;;;20.40;13.40;;;;;;;11.84;65.47;101176.08;107682;1268;64627;-55
2023/04/16 07:31:56;;;;;;;18.50;12.00;;;;;;;11.79;65.45;101180.13;107676;1268;63713;-55
2023/04/16 07:34:25;;;;;;;21.00;13.60;;;;;;;11.78;65.18;101179.64;107726;1266;65065;-56
2023/04/16 07:36:53;;;;;;;19.20;12.70;;;;;;;11.85;64.97;101180.38;107617;1266;59392;-55
2023/04/16 07:39:21;;;;;;;19.90;13.40;;;;;;;11.85;64.87;101183.02;107244;1267;58822;-54
2023/04/16 07:41:49;;;;;;;20.40;15.50;;;;;;;11.77;65.10;101182.88;104140;1271;63358;-54
2023/04/16 07:44:17;;;;;;;31.80;20.60;;;;;;;11.77;65.15;101179.95;104671;1265;62763;-54
2023/04/16 07:46:45;;;;;;;29.30;19.60;;;;;;;11.74;65.31;101182.42;107271;1262;63765;-55
2023/04/16 07:49:14;;;;;;;23.90;16.70;;;;;;;11.72;65.36;101185.55;108027;1261;58715;-54
2023/04/16 07:51:43;;;;;;;18.70;13.60;;;;;;;11.74;65.17;101186.08;105024;1261;59719;-56
2023/04/16 07:54:11;;;;;;;21.20;13.50;;;;;;;11.77;65.04;101187.16;104597;1263;64233;-55
2023/04/16 07:56:39;;;;;;;20.30;13.50;;;;;;;11.77;64.96;101186.90;108084;1259;62675;-54
2023/04/16 07:59:07;;;;;;;21.90;14.50;;;;;;;11.74;64.88;101183.98;108099;1260;65911;-55
2023/04/16 08:01:41;;;;;;;20.30;14.10;;;;;;;11.68;64.94;101186.49;108101;1261;58538;-54
2023/04/16 08:04:09;;;;;;;21.10;15.20;;;;;;;11.60;64.91;101187.95;108103;1261;59029;-55
2023/04/16 08:06:39;;;;;;;24.30;15.80;;;;;;;11.54;65.14;101190.85;104927;1271;65691;-55
2023/04/16 08:09:07;;;;;;;22.00;15.00;;;;;;;11.49;65.29;101188.38;104634;1263;61769;-55
2023/04/16 08:11:36;;;;;;;21.80;15.10;;;;;;;11.44;65.48;101185.41;108055;1263;64723;-55
2023/04/16 08:14:04;;;;;;;21.90;15.10;;;;;;;11.44;65.54;101183.88;107475;1262;59743;-55
2023/04/16 08:16:33;;;;;;;22.00;14.30;;;;;;;11.49;65.51;101186.48;105790;1263;59409;-55
2023/04/16 08:19:01;;;;;;;23.80;15.60;;;;;;;11.55;65.53;101188.34;104605;1261;64936;-55
2023/04/16 08:21:30;;;;;;;20.50;14.80;;;;;;;11.59;65.52;101190.31;108101;1261;62648;-55
2023/04/16 08:23:58;;;;;;;22.80;15.10;;;;;;;11.62;65.43;101187.34;108156;1262;64076;-55
2023/04/16 08:26:26;;;;;;;22.80;16.10;;;;;;;11.60;65.29;101189.52;105441;1262;59744;-55
2023/04/16 08:28:54;;;;;;;22.70;15.40;;;;;;;11.59;65.22;101190.15;104666;1264;60452;-55
2023/04/16 08:31:23;;;;;;;22.80;16.20;;;;;;;11.55;65.38;101189.70;108113;1260;65044;-55
2023/04/16 08:33:51;;;;;;;24.10;14.80;;;;;;;11.54;65.61;101187.85;108167;1259;62289;-55
2023/04/16 08:36:19;;;;;;;21.40;14.60;;;;;;;11.58;65.39;101190.73;106972;1262;65030;-55
2023/04/16 08:38:51;;;;;;;23.60;14.40;;;;;;;11.65;65.39;101193.23;104636;1272;59741;-55
2023/04/16 08:41:19;;;;;;;23.50;14.60;;;;;;;11.70;65.28;101192.69;108054;1257;59496;-55
2023/04/16 08:43:47;;;;;;;22.70;15.90;;;;;;;11.74;65.22;101188.23;107965;1260;68070;-56
2023/04/16 08:46:16;;;;;;;22.80;15.70;;;;;;;11.74;65.04;101187.52;108132;1265;63147;-55
2023/04/16 08:48:45;;;;;;;21.20;14.80;;;;;;;11.70;64.98;101185.13;108082;1262;65110;-55
2023/04/16 08:51:13;;;;;;;24.90;15.50;;;;;;;11.68;64.87;101184.79;108018;1258;59556;-56
2023/04/16 08:53:47;;;;;;;21.40;14.00;;;;;;;11.65;64.97;101188.67;108061;1260;59229;-56
2023/04/16 08:56:15;;;;;;;23.00;14.80;;;;;;;11.69;64.92;101188.20;108164;1261;63939;-55
2023/04/16 08:58:43;;;;;;;21.50;14.90;;;;;;;11.78;64.79;101186.34;108131;1258;64134;-55
2023/04/16 09:01:11;;;;;;;21.10;14.70;;;;;;;11.87;64.63;101182.84;105580;1263;64722;-55
2023/04/16 09:03:40;;;;;;;19.90;14.30;;;;;;;11.91;64.77;101179.77;104498;1268;59672;-55
2023/04/16 09:06:11;;;;;;;24.70;15.30;;;;;;;11.95;64.81;101183.74;108094;1265;58259;-55
2023/04/16 09:08:39;;;;;;;23.60;14.90;;;;;;;11.97;64.60;101186.39;108094;1263;65435;-55
2023/04/16 09:11:07;;;;;;;21.20;14.70;;;;;;;12.02;64.44;101184.60;108095;1263;62870;-55
2023/04/16 09:13:37;;;;;;;23.70;14.20;;;;;;;12.00;64.53;101189.13;107942;1266;65373;-55
2023/04/16 09:16:06;;;;;;;23.00;14.80;;;;;;;11.98;64.55;101187.55;108035;1259;59544;-55
2023/04/16 09:18:34;;;;;;;24.20;14.10;;;;;;;12.03;64.40;101189.66;108133;1263;60168;-55
2023/04/16 09:21:03;;;;;;;22.80;15.40;;;;;;;12.08;64.03;101193.84;108177;1262;64083;-56
2023/04/16 09:23:31;;;;;;;23.10;15.50;;;;;;;12.09;64.00;101197.84;108077;1260;61825;-57
2023/04/16 09:25:59;;;;;;;26.40;16.10;;;;;;;12.08;64.08;101200.55;108107;1260;64719;-56
2023/04/16 09:28:41;;;;;;;21.30;15.20;;;;;;;12.02;64.05;101202.21;108109;1261;57962;-55
2023/04/16 09:31:16;;;;;;;26.70;16.50;;;;;;;11.99;64.12;101200.63;108116;1261;58754;-55
2023/04/16 09:34:02;;;;;;;23.40;16.10;;;;;;;11.98;64.23;101206.75;108119;1261;65447;-55
2023/04/16 09:36:31;;;;;;;23.30;15.00;;;;;;;11.98;64.25;101208.11;108193;1261;63916;-56
2023/04/16 09:39:00;;;;;;;22.20;15.00;;;;;;;12.08;64.09;101207.61;106135;1263;65190;-56
2023/04/16 09:41:29;;;;;;;19.30;14.00;;;;;;;12.14;63.94;101209.81;104672;1263;61831;-56
2023/04/16 09:44:03;;;;;;;26.30;15.60;;;;;;;12.09;64.09;101212.09;104641;1261;61254;-56
2023/04/16 09:46:44;;;;;;;25.20;15.80;;;;;;;12.13;64.21;101216.19;104691;1263;65766;-56
2023/04/16 09:49:14;;;;;;;20.90;14.80;;;;;;;12.23;63.88;101217.61;104643;1260;62771;-55
2023/04/16 09:51:46;;;;;;;24.20;16.70;;;;;;;12.20;63.79;101222.19;106787;1261;64081;-56
2023/04/16 09:54:14;;;;;;;20.60;15.20;;;;;;;12.07;64.02;101225.96;108086;1261;60239;-56
2023/04/16 09:56:44;;;;;;;27.60;16.30;;;;;;;12.04;64.18;101230.39;108126;1261;59406;-55
2023/04/16 09:59:22;;;;;;;20.90;15.50;;;;;;;11.96;64.35;101230.09;108054;1261;64418;-56
2023/04/16 10:01:54;;;;;;;22.40;14.90;;;;;;;11.99;64.22;101232.89;108120;1260;63079;-56
2023/04/16 10:04:50;;;;;;;24.40;15.30;;;;;;;12.04;64.07;101234.09;106203;1261;65075;-56
2023/04/16 10:07:19;;;;;;;22.10;14.50;;;;;;;12.04;64.12;101233.38;108071;1263;58744;-56
2023/04/16 10:09:47;;;;;;;23.30;16.20;;;;;;;12.07;64.22;101232.98;108100;1260;60152;-57
2023/04/16 10:12:15;;;;;;;22.50;15.20;;;;;;;12.09;64.22;101232.69;108125;1260;66495;-57
2023/04/16 10:14:45;;;;;;;23.40;16.40;;;;;;;12.11;64.25;101235.66;108113;1263;61544;-56
2023/04/16 10:17:16;;;;;;;22.30;16.10;;;;;;;12.15;64.04;101234.19;108090;1260;64115;-56
2023/04/16 10:19:45;;;;;;;21.50;16.20;;;;;;;12.18;63.89;101239.58;107479;1257;59224;-55
2023/04/16 10:22:13;;;;;;;20.70;15.00;;;;;;;12.22;63.68;101236.13;108353;1256;58728;-56
2023/04/16 10:24:42;;;;;;;22.10;15.70;;;;;;;12.33;63.27;101244.62;108366;1259;65411;-56
2023/04/16 10:27:10;;;;;;;21.20;14.70;;;;;;;12.26;63.37;101242.67;108033;1255;62809;-57
2023/04/16 10:29:38;;;;;;;22.10;15.40;;;;;;;12.29;63.38;101243.20;104911;1259;64658;-55
2023/04/16 10:32:06;;;;;;;22.90;15.80;;;;;;;12.32;63.43;101244.50;105005;1253;61389;-55
2023/04/16 10:34:35;;;;;;;23.30;18.00;;;;;;;12.34;63.35;101244.73;105070;1257;61079;-55
2023/04/16 10:37:03;;;;;;;20.90;15.90;;;;;;;12.36;63.30;101243.89;108414;1260;65087;-55
2023/04/16 10:39:36;;;;;;;25.60;16.90;;;;;;;12.46;62.85;101241.52;108312;1254;73578;-55
2023/04/16 10:42:11;;;;;;;24.10;16.30;;;;;;;12.46;62.75;101239.12;108363;1254;63631;-55
2023/04/16 10:44:39;;;;;;;27.60;16.50;;;;;;;12.47;62.77;101237.77;108446;1254;58150;-55
2023/04/16 10:47:12;;;;;;;21.00;14.70;;;;;;;12.52;62.69;101238.64;108358;1254;57527;-55
2023/04/16 10:49:42;;;;;;;23.00;15.50;;;;;;;12.52;62.84;101243.63;106878;1255;64195;-55
2023/04/16 10:52:17;;;;;;;22.20;16.10;;;;;;;12.56;62.65;101241.31;108416;1257;61448;-55
2023/04/16 10:54:49;;;;;;;21.80;15.30;;;;;;;12.52;62.90;101242.14;108420;1254;64349;-55
2023/04/16 10:57:18;;;;;;;24.80;17.00;;;;;;;12.57;62.92;101244.94;108423;1254;59076;-56
2023/04/16 10:59:47;;;;;;;22.60;16.70;;;;;;;12.60;62.92;101248.09;108398;1256;58532;-55
2023/04/16 11:02:16;;;;;;;23.20;16.40;;;;;;;12.60;62.76;101246.54;108357;1254;64451;-55
2023/04/16 11:04:46;;;;;;;23.70;16.20;;;;;;;12.53;62.73;101248.08;108438;1254;61436;-55
2023/04/16 11:07:19;;;;;;;21.20;15.00;;;;;;;12.48;62.73;101249.18;108439;1254;64812;-56
2023/04/16 11:10:01;;;;;;;21.80;15.10;;;;;;;12.51;62.57;101251.61;108404;1254;59861;-55
2023/04/16 11:12:39;;;;;;;21.20;15.20;;;;;;;12.53;62.51;101253.69;108424;1254;59485;-56
2023/04/16 11:15:14;;;;;;;22.90;16.60;;;;;;;12.59;62.61;101253.95;108399;1254;65282;-56
2023/04/16 11:17:46;;;;;;;24.30;17.50;;;;;;;12.57;62.89;101253.56;108429;1254;62796;-56
2023/04/16 11:20:22;;;;;;;24.70;17.50;;;;;;;12.50;63.05;101256.10;106676;1254;65120;-55
2023/04/16 11:22:52;;;;;;;23.50;17.10;;;;;;;12.45;63.13;101253.89;105085;1254;60323;-54
2023/04/16 11:25:23;;;;;;;25.10;18.70;;;;;;;12.48;62.89;101254.08;104918;1261;61184;-55